Time;durP1;ratioP1;P1;durP2;ratioP2;P2;SDS_P1;SDS_P2;PMS_P1;PMS_P2;Temp;Humidity;BMP_temperature;BMP_pressure;BME280_temperature;BME280_humidity;BME280_pressure;Samples;Min_cycle;Max_cycle;Signal;HPM_P1;HPM_P2
2023/03/27 00:01:14;;;;;;;1.10;0.57;;;9.30;56.40;;;;;;20591;6817;290772;-77
2023/03/27 00:03:41;;;;;;;0.30;0.30;;;9.50;56.50;;;;;;20803;6817;117011;-77
2023/03/27 00:06:05;;;;;;;1.43;0.60;;;9.50;56.20;;;;;;20812;6817;119639;-77
2023/03/27 00:08:31;;;;;;;0.40;0.40;;;9.30;56.50;;;;;;20787;6817;127016;-77
2023/03/27 00:10:57;;;;;;;0.55;0.55;;;9.30;57.10;;;;;;20600;6817;306560;-76
2023/03/27 00:13:24;;;;;;;0.37;0.37;;;9.30;56.90;;;;;;20796;6818;121880;-77
2023/03/27 00:15:52;;;;;;;0.50;0.50;;;9.20;56.80;;;;;;20794;6818;121555;-77
2023/03/27 00:18:16;;;;;;;1.40;0.57;;;9.20;56.80;;;;;;20750;6818;117361;-78
2023/03/27 00:20:43;;;;;;;0.30;0.30;;;9.00;58.10;;;;;;20791;6818;117943;-78
2023/03/27 00:23:08;;;;;;;0.57;0.40;;;8.90;57.40;;;;;;20786;6818;116792;-77
2023/03/27 00:25:34;;;;;;;0.30;0.30;;;8.90;57.60;;;;;;20580;6818;306847;-79
2023/03/27 00:27:59;;;;;;;0.50;0.30;;;9.10;57.50;;;;;;20797;6818;117018;-77
2023/03/27 00:30:27;;;;;;;0.70;0.50;;;9.10;57.00;;;;;;20575;6818;335793;-77
2023/03/27 00:32:54;;;;;;;0.82;0.40;;;9.30;57.30;;;;;;20592;6818;278359;-77
2023/03/27 00:35:18;;;;;;;2.00;0.57;;;9.60;56.80;;;;;;20588;6818;328642;-76
2023/03/27 00:37:45;;;;;;;1.83;0.40;;;9.80;56.00;;;;;;20809;6818;122589;-78
2023/03/27 00:40:17;;;;;;;0.60;0.30;;;9.80;56.00;;;;;;20590;6818;307572;-76
2023/03/27 00:42:46;;;;;;;0.37;0.30;;;9.80;56.20;;;;;;20590;6818;277440;-77
2023/03/27 00:45:19;;;;;;;0.40;0.40;;;10.20;54.40;;;;;;20587;6818;288760;-77
2023/03/27 00:47:44;;;;;;;0.20;0.20;;;10.20;54.40;;;;;;20789;6818;118322;-75
2023/03/27 00:50:10;;;;;;;0.85;0.28;;;10.00;54.30;;;;;;20808;6816;117049;-76
2023/03/27 00:52:35;;;;;;;0.30;0.20;;;9.60;55.80;;;;;;20553;6817;278356;-77
2023/03/27 00:55:01;;;;;;;0.30;0.20;;;9.70;55.70;;;;;;20784;6817;117021;-76
2023/03/27 00:57:28;;;;;;;0.20;0.20;;;9.60;55.70;;;;;;20594;6817;335638;-77
2023/03/27 00:59:53;;;;;;;0.20;0.20;;;9.60;55.30;;;;;;20746;6817;117355;-77
2023/03/27 01:02:20;;;;;;;2.20;1.53;;;9.30;55.90;;;;;;20781;6817;122931;-77
2023/03/27 01:04:45;;;;;;;0.73;0.30;;;9.30;55.90;;;;;;20801;6817;117097;-77
2023/03/27 01:07:12;;;;;;;0.20;0.20;;;9.20;56.80;;;;;;20597;6817;306166;-76
2023/03/27 01:09:37;;;;;;;0.20;0.20;;;9.20;56.80;;;;;;20787;6817;117072;-76
2023/03/27 01:12:29;;;;;;;0.30;0.30;;;9.20;56.60;;;;;;20799;6817;117686;-76
2023/03/27 01:15:18;;;;;;;0.30;0.30;;;9.00;56.90;;;;;;20588;6817;282760;-76
2023/03/27 01:18:03;;;;;;;0.30;0.30;;;9.10;56.70;;;;;;20586;6817;277135;-77
2023/03/27 01:20:51;;;;;;;0.40;0.40;;;9.40;56.40;;;;;;20578;6817;307826;-78
2023/03/27 01:23:26;;;;;;;0.50;0.50;;;9.60;55.60;;;;;;20768;6817;116734;-77
2023/03/27 01:26:31;;;;;;;0.73;0.30;;;9.30;55.50;;;;;;20752;6818;119147;-76
2023/03/27 01:29:14;;;;;;;0.60;0.60;;;8.90;56.50;;;;;;20561;6818;339887;-77
2023/03/27 01:31:43;;;;;;;0.57;0.57;;;9.00;57.30;;;;;;20561;6818;315060;-77
2023/03/27 01:34:28;;;;;;;0.60;0.60;;;9.30;56.70;;;;;;20545;6818;295178;-77
2023/03/27 01:37:11;;;;;;;0.60;0.60;;;9.60;55.40;;;;;;20545;6818;341268;-77
2023/03/27 01:40:13;;;;;;;0.70;0.70;;;9.60;55.40;;;;;;20595;6818;277426;-77
2023/03/27 01:42:28;;;;;;;0.60;0.60;;;9.70;55.20;;;;;;20478;6818;335468;-77
2023/03/27 01:44:57;;;;;;;0.50;0.50;;;9.70;54.70;;;;;;20790;6818;117114;-78
2023/03/27 01:47:31;;;;;;;0.70;0.70;;;9.40;54.80;;;;;;20563;6818;276674;-77
2023/03/27 01:49:56;;;;;;;0.70;0.70;;;9.20;55.60;;;;;;20587;6818;277074;-77
2023/03/27 01:52:22;;;;;;;0.80;0.80;;;9.40;54.60;;;;;;20557;6818;306362;-78
2023/03/27 01:54:53;;;;;;;0.73;0.73;;;9.40;55.00;;;;;;20793;6818;117336;-77
2023/03/27 01:57:18;;;;;;;0.60;0.60;;;9.20;55.30;;;;;;20791;6818;117109;-77
2023/03/27 01:59:41;;;;;;;0.80;0.80;;;8.70;56.10;;;;;;20789;6816;118033;-77
2023/03/27 02:02:07;;;;;;;0.80;0.80;;;8.40;56.80;;;;;;20785;6817;116983;-77
2023/03/27 02:04:36;;;;;;;0.60;0.60;;;8.20;57.60;;;;;;20779;6817;118029;-77
2023/03/27 02:07:03;;;;;;;0.60;0.60;;;8.00;58.10;;;;;;20809;6817;117151;-77
2023/03/27 02:09:33;;;;;;;0.70;0.70;;;7.80;58.30;;;;;;20579;6817;277652;-78
2023/03/27 02:12:01;;;;;;;0.65;0.65;;;8.00;58.60;;;;;;20591;6817;305950;-77
2023/03/27 02:14:27;;;;;;;0.67;0.67;;;8.30;57.40;;;;;;20572;6817;306920;-77
2023/03/27 02:16:53;;;;;;;0.60;0.60;;;8.60;56.50;;;;;;20593;6817;276919;-77
2023/03/27 02:19:23;;;;;;;0.60;0.60;;;8.80;55.90;;;;;;20795;6817;117092;-77
2023/03/27 02:21:48;;;;;;;0.60;0.30;;;8.50;56.30;;;;;;20570;6817;311045;-77
2023/03/27 02:24:17;;;;;;;0.40;0.40;;;8.50;55.60;;;;;;20801;6817;120171;-78
2023/03/27 02:26:43;;;;;;;0.50;0.50;;;8.20;56.70;;;;;;20592;6817;311090;-77
2023/03/27 02:29:18;;;;;;;0.47;0.47;;;8.20;56.10;;;;;;20589;6817;310343;-77
2023/03/27 02:32:03;;;;;;;0.87;0.40;;;8.40;55.80;;;;;;20722;6836;117111;-76
2023/03/27 02:34:52;;;;;;;1.03;0.93;;;8.20;55.90;;;;;;20493;6830;306908;-76
2023/03/27 02:37:28;;;;;;;1.50;1.40;;;8.20;56.00;;;;;;20505;6835;282317;-77
2023/03/27 02:39:56;;;;;;;2.90;2.60;;;8.40;55.60;;;;;;20524;6841;278515;-77
2023/03/27 02:42:42;;;;;;;3.63;2.73;;;8.50;55.00;;;;;;20766;6823;119637;-77
2023/03/27 02:45:09;;;;;;;3.33;3.13;;;8.30;55.00;;;;;;20791;6823;117334;-76
2023/03/27 02:47:36;;;;;;;4.00;3.60;;;7.80;55.80;;;;;;20539;6823;277699;-79
2023/03/27 02:50:06;;;;;;;5.00;3.57;;;7.60;55.90;;;;;;20746;6823;117253;-77
2023/03/27 02:52:32;;;;;;;4.13;3.83;;;7.40;56.50;;;;;;20727;6823;118834;-77
2023/03/27 02:55:03;;;;;;;5.72;4.87;;;7.30;56.40;;;;;;20558;6823;308224;-77
2023/03/27 02:57:25;;;;;;;5.60;4.70;;;7.80;55.50;;;;;;20550;6823;282874;-77
2023/03/27 02:59:49;;;;;;;6.23;4.30;;;7.70;55.50;;;;;;20744;6823;123252;-77
2023/03/27 03:02:17;;;;;;;4.55;4.25;;;7.60;55.30;;;;;;20719;6838;120807;-77
2023/03/27 03:04:46;;;;;;;3.83;3.50;;;7.40;56.00;;;;;;20713;6838;122804;-77
2023/03/27 03:07:13;;;;;;;5.33;4.07;;;7.10;56.60;;;;;;20725;6838;119884;-77
2023/03/27 03:09:38;;;;;;;4.53;4.00;;;6.70;57.60;;;;;;20747;6838;117973;-77
2023/03/27 03:12:03;;;;;;;6.20;5.60;;;6.70;57.60;;;;;;20518;6838;308649;-77
2023/03/27 03:14:32;;;;;;;4.78;4.37;;;6.90;57.20;;;;;;20728;6836;119091;-77
2023/03/27 03:16:58;;;;;;;6.00;3.83;;;6.90;56.80;;;;;;20730;6835;119684;-77
2023/03/27 03:19:23;;;;;;;5.00;4.60;;;6.80;57.20;;;;;;20747;6835;116879;-77
2023/03/27 03:21:49;;;;;;;4.80;4.37;;;6.60;57.40;;;;;;20703;6850;120017;-77
2023/03/27 03:24:16;;;;;;;7.97;4.23;;;6.30;58.50;;;;;;20737;6832;117469;-77
2023/03/27 03:26:43;;;;;;;6.77;3.80;;;6.30;57.80;;;;;;20750;6832;120899;-78
2023/03/27 03:29:08;;;;;;;5.43;3.90;;;6.20;58.00;;;;;;20754;6829;119439;-76
2023/03/27 03:31:43;;;;;;;7.30;4.12;;;6.00;58.20;;;;;;20724;6844;119610;-76
2023/03/27 03:34:09;;;;;;;6.53;4.53;;;5.70;58.60;;;;;;20721;6844;116990;-77
2023/03/27 03:36:34;;;;;;;7.18;5.10;;;5.70;58.10;;;;;;20530;6829;310423;-77
2023/03/27 03:39:00;;;;;;;8.63;4.85;;;6.00;57.60;;;;;;20568;6829;305025;-77
2023/03/27 03:41:25;;;;;;;5.97;3.23;;;6.40;56.00;;;;;;20777;6829;116967;-77
2023/03/27 03:43:51;;;;;;;6.73;2.97;;;6.40;55.60;;;;;;20765;6829;121760;-77
2023/03/27 03:46:17;;;;;;;4.40;2.65;;;6.10;55.70;;;;;;20746;6829;120239;-77
2023/03/27 03:48:42;;;;;;;9.27;3.78;;;5.90;56.40;;;;;;20541;6829;328275;-77
2023/03/27 03:51:08;;;;;;;7.30;3.55;;;6.10;55.10;;;;;;20773;6829;119608;-77
2023/03/27 03:53:33;;;;;;;6.50;3.00;;;6.10;55.00;;;;;;20768;6829;122774;-77
2023/03/27 03:55:59;;;;;;;9.02;3.00;;;6.00;55.50;;;;;;20752;6829;117367;-77
2023/03/27 03:58:25;;;;;;;7.43;3.40;;;5.90;55.90;;;;;;20747;6829;117991;-77
2023/03/27 04:00:50;;;;;;;4.97;2.83;;;5.80;56.20;;;;;;20770;6829;117127;-77
2023/03/27 04:03:16;;;;;;;4.70;2.73;;;5.70;56.10;;;;;;20770;6829;117481;-78
2023/03/27 04:05:41;;;;;;;4.77;2.60;;;5.70;56.20;;;;;;20713;6844;119354;-78
2023/03/27 04:08:07;;;;;;;10.43;3.80;;;5.60;56.20;;;;;;20581;6822;303087;-75
2023/03/27 04:10:32;;;;;;;7.20;2.87;;;5.80;54.60;;;;;;20770;6822;119521;-75
2023/03/27 04:12:59;;;;;;;8.57;3.40;;;6.20;53.80;;;;;;20529;6826;307804;-75
2023/03/27 04:15:25;;;;;;;3.93;2.83;;;6.10;53.70;;;;;;20778;6826;119063;-75
2023/03/27 04:17:52;;;;;;;5.45;3.08;;;6.10;54.40;;;;;;20769;6826;116838;-77
2023/03/27 04:20:17;;;;;;;10.03;3.40;;;6.00;53.80;;;;;;20545;6826;311484;-77
2023/03/27 04:22:45;;;;;;;6.72;3.12;;;6.20;52.80;;;;;;20776;6826;117791;-76
2023/03/27 04:25:10;;;;;;;6.83;3.00;;;6.20;52.70;;;;;;20773;6825;117002;-76
2023/03/27 04:27:35;;;;;;;6.78;3.58;;;6.10;53.20;;;;;;20568;6826;306062;-79
2023/03/27 04:30:01;;;;;;;8.93;4.03;;;6.30;53.10;;;;;;20561;6826;277829;-75
2023/03/27 04:32:26;;;;;;;7.43;3.50;;;6.60;51.90;;;;;;20739;6826;117428;-77
2023/03/27 04:34:53;;;;;;;9.53;4.00;;;6.60;51.90;;;;;;20556;6826;336433;-75
2023/03/27 04:37:18;;;;;;;7.37;3.90;;;7.00;50.70;;;;;;20561;6826;277961;-79
2023/03/27 04:39:45;;;;;;;11.00;4.15;;;6.90;50.60;;;;;;20557;6826;306924;-77
2023/03/27 04:42:10;;;;;;;5.70;3.17;;;7.00;50.40;;;;;;20769;6826;117001;-81
2023/03/27 04:44:36;;;;;;;10.10;3.93;;;7.00;50.40;;;;;;20525;6826;307060;-76
2023/03/27 04:47:02;;;;;;;6.65;3.33;;;6.80;50.50;;;;;;20771;6826;118771;-75
2023/03/27 04:49:27;;;;;;;11.47;4.00;;;6.70;50.40;;;;;;20564;6826;277888;-75
2023/03/27 04:51:56;;;;;;;10.90;4.05;;;6.80;49.90;;;;;;20564;6826;316229;-80
2023/03/27 04:54:22;;;;;;;7.57;3.37;;;6.90;49.00;;;;;;20764;6826;143146;-77
2023/03/27 04:56:47;;;;;;;9.48;3.42;;;6.70;49.50;;;;;;20572;6826;281361;-75
2023/03/27 04:59:14;;;;;;;7.50;2.83;;;6.70;49.50;;;;;;20776;6826;117379;-76
2023/03/27 05:01:38;;;;;;;10.23;3.70;;;6.60;49.80;;;;;;20569;6826;325287;-76
2023/03/27 05:04:04;;;;;;;6.73;3.50;;;6.60;49.50;;;;;;20564;6826;307957;-78
2023/03/27 05:06:31;;;;;;;6.00;3.87;;;6.80;49.10;;;;;;20724;6826;117745;-77
2023/03/27 05:08:57;;;;;;;9.52;3.58;;;6.70;49.40;;;;;;20558;6826;315356;-80
2023/03/27 05:11:22;;;;;;;6.77;3.83;;;6.70;49.10;;;;;;20779;6826;117581;-77
2023/03/27 05:13:49;;;;;;;5.50;2.78;;;6.30;50.40;;;;;;20765;6826;119130;-77
2023/03/27 05:16:16;;;;;;;4.83;2.77;;;6.30;50.40;;;;;;20771;6826;121452;-77
2023/03/27 05:18:43;;;;;;;7.53;3.87;;;6.10;49.70;;;;;;20575;6826;283679;-75
2023/03/27 05:21:07;;;;;;;9.18;3.50;;;6.10;49.70;;;;;;20554;6826;309565;-75
2023/03/27 05:23:34;;;;;;;7.10;3.30;;;6.40;48.70;;;;;;20574;6826;280999;-76
2023/03/27 05:26:00;;;;;;;7.85;3.53;;;6.60;47.90;;;;;;20577;6826;277578;-75
2023/03/27 05:28:25;;;;;;;8.17;3.37;;;6.80;47.60;;;;;;20576;6826;307037;-75
2023/03/27 05:30:51;;;;;;;8.77;3.20;;;6.90;47.10;;;;;;20538;6826;283274;-73
2023/03/27 05:33:19;;;;;;;6.32;3.15;;;7.00;47.20;;;;;;20580;6826;277946;-78
2023/03/27 05:35:45;;;;;;;10.43;2.93;;;7.10;46.60;;;;;;20798;6824;119030;-78
2023/03/27 05:38:10;;;;;;;8.27;2.60;;;6.80;47.30;;;;;;20786;6825;117181;-78
2023/03/27 05:40:36;;;;;;;3.10;2.40;;;6.40;48.10;;;;;;20771;6826;117355;-78
2023/03/27 05:43:02;;;;;;;7.95;3.00;;;6.20;48.40;;;;;;20585;6826;306197;-78
2023/03/27 05:45:28;;;;;;;10.23;3.10;;;6.10;48.50;;;;;;20578;6826;293576;-77
2023/03/27 05:47:53;;;;;;;7.57;3.13;;;6.40;47.80;;;;;;20478;6826;278075;-77
2023/03/27 05:50:19;;;;;;;5.78;3.25;;;6.70;47.20;;;;;;20494;6826;276542;-77
2023/03/27 05:52:47;;;;;;;8.57;2.70;;;6.70;46.30;;;;;;20791;6826;116513;-77
2023/03/27 05:55:13;;;;;;;7.05;2.90;;;6.70;46.40;;;;;;20567;6826;282551;-77
2023/03/27 05:57:39;;;;;;;4.47;1.98;;;6.70;46.50;;;;;;20808;6826;122743;-79
2023/03/27 06:00:12;;;;;;;8.07;2.97;;;6.60;47.20;;;;;;20800;6826;123046;-77
2023/03/27 06:02:38;;;;;;;6.30;2.30;;;6.30;47.80;;;;;;20763;6826;119099;-78
2023/03/27 06:05:05;;;;;;;6.20;2.43;;;5.90;49.10;;;;;;20783;6826;116888;-77
2023/03/27 06:07:31;;;;;;;5.23;2.73;;;5.90;49.10;;;;;;20782;6826;116815;-76
2023/03/27 06:09:56;;;;;;;9.10;3.10;;;5.70;49.60;;;;;;20577;6826;276985;-74
2023/03/27 06:12:22;;;;;;;8.30;4.20;;;5.90;48.30;;;;;;20546;6826;277996;-74
2023/03/27 06:14:47;;;;;;;7.05;3.37;;;6.30;47.30;;;;;;20552;6826;340942;-73
2023/03/27 06:17:13;;;;;;;6.68;2.70;;;6.60;46.60;;;;;;20561;6826;335591;-74
2023/03/27 06:19:40;;;;;;;8.33;2.70;;;6.90;46.00;;;;;;20779;6826;121833;-74
2023/03/27 06:22:06;;;;;;;10.33;2.77;;;6.70;46.40;;;;;;20777;6826;67979;-74
2023/03/27 06:24:31;;;;;;;5.00;2.53;;;6.40;47.10;;;;;;20769;6826;116984;-74
2023/03/27 06:26:57;;;;;;;6.87;2.80;;;6.10;47.90;;;;;;20570;6826;306924;-74
2023/03/27 06:29:23;;;;;;;9.30;3.17;;;6.20;46.90;;;;;;20562;6826;306650;-74
2023/03/27 06:31:47;;;;;;;6.40;4.65;;;6.50;45.80;;;;;;20774;6826;117010;-74
2023/03/27 06:34:13;;;;;;;7.80;6.40;;;6.40;46.40;;;;;;20773;6826;67441;-74
2023/03/27 06:36:39;;;;;;;11.02;5.53;;;6.10;47.10;;;;;;20546;6826;306956;-74
2023/03/27 06:39:05;;;;;;;10.50;4.13;;;6.20;46.30;;;;;;20563;6826;293681;-74
2023/03/27 06:41:29;;;;;;;9.07;3.47;;;6.50;46.70;;;;;;20554;6826;311561;-72
2023/03/27 06:43:56;;;;;;;7.20;3.30;;;6.70;45.80;;;;;;20565;6826;336851;-72
2023/03/27 06:46:22;;;;;;;6.90;3.03;;;7.00;45.30;;;;;;20549;6824;303599;-72
2023/03/27 06:48:49;;;;;;;8.27;3.10;;;7.20;44.30;;;;;;20579;6825;277536;-73
2023/03/27 06:51:13;;;;;;;7.68;2.65;;;7.20;43.70;;;;;;20557;6826;307658;-73
2023/03/27 06:53:40;;;;;;;6.95;2.75;;;7.30;43.50;;;;;;20579;6826;277768;-74
2023/03/27 06:56:05;;;;;;;10.35;2.75;;;7.30;43.30;;;;;;20569;6826;280580;-74
2023/03/27 06:58:31;;;;;;;8.30;2.67;;;7.30;43.40;;;;;;20741;6826;119703;-73
2023/03/27 07:00:56;;;;;;;3.83;1.90;;;7.00;44.20;;;;;;20736;6826;119597;-73
2023/03/27 07:03:22;;;;;;;8.00;2.60;;;6.60;45.40;;;;;;20553;6826;277425;-73
2023/03/27 07:05:48;;;;;;;9.43;2.73;;;6.70;44.40;;;;;;20560;6826;329325;-75
2023/03/27 07:08:16;;;;;;;7.50;2.93;;;6.70;44.40;;;;;;20564;6826;279606;-74
2023/03/27 07:10:41;;;;;;;6.07;2.53;;;6.90;44.40;;;;;;20771;6826;116975;-73
2023/03/27 07:13:07;;;;;;;4.90;2.20;;;6.80;45.10;;;;;;20776;6826;117012;-73
2023/03/27 07:15:32;;;;;;;3.80;1.87;;;6.50;46.10;;;;;;20773;6826;117543;-73
2023/03/27 07:18:01;;;;;;;6.70;2.80;;;6.30;46.90;;;;;;20562;6826;336208;-73
2023/03/27 07:20:26;;;;;;;7.13;3.00;;;6.40;45.30;;;;;;20552;6826;277576;-73
2023/03/27 07:22:52;;;;;;;8.77;2.80;;;6.80;45.00;;;;;;20570;6826;307090;-73
2023/03/27 07:25:17;;;;;;;5.40;2.20;;;7.10;44.50;;;;;;20783;6826;120002;-73
2023/03/27 07:27:43;;;;;;;7.40;2.70;;;6.90;44.80;;;;;;20579;6826;281794;-73
2023/03/27 07:30:12;;;;;;;6.10;2.50;;;7.00;43.80;;;;;;20581;6826;277022;-74
2023/03/27 07:32:37;;;;;;;5.57;2.53;;;7.10;44.30;;;;;;20554;6826;306536;-74
2023/03/27 07:35:04;;;;;;;8.20;2.23;;;7.30;43.60;;;;;;20787;6826;123264;-74
2023/03/27 07:37:28;;;;;;;4.60;2.30;;;7.30;44.60;;;;;;20772;6826;122563;-74
2023/03/27 07:39:54;;;;;;;5.00;2.03;;;6.70;45.70;;;;;;20756;6826;116896;-74
2023/03/27 07:42:20;;;;;;;6.10;2.60;;;6.70;45.70;;;;;;20757;6826;117117;-73
2023/03/27 07:44:46;;;;;;;8.07;2.13;;;6.50;47.20;;;;;;20779;6826;117030;-72
2023/03/27 07:47:11;;;;;;;5.93;2.03;;;6.50;47.20;;;;;;20777;6826;117220;-73
2023/03/27 07:49:37;;;;;;;5.80;2.00;;;6.40;47.50;;;;;;20776;6826;118989;-75
2023/03/27 07:52:03;;;;;;;3.63;1.90;;;6.40;47.90;;;;;;20777;6826;117018;-74
2023/03/27 07:54:30;;;;;;;6.80;2.60;;;6.40;48.10;;;;;;20538;6826;307479;-74
2023/03/27 07:56:54;;;;;;;3.90;2.07;;;6.70;46.50;;;;;;20774;6826;118362;-73
2023/03/27 07:59:22;;;;;;;4.43;2.37;;;7.00;44.10;;;;;;20572;6824;307900;-73
2023/03/27 08:01:49;;;;;;;3.03;2.20;;;7.00;44.10;;;;;;20782;6825;121220;-73
2023/03/27 08:04:15;;;;;;;5.53;2.45;;;7.10;44.70;;;;;;20567;6826;309703;-74
2023/03/27 08:06:41;;;;;;;6.00;2.50;;;7.30;44.40;;;;;;20748;6826;117162;-74
2023/03/27 08:09:07;;;;;;;7.32;2.53;;;7.30;44.40;;;;;;20564;6826;301808;-77
2023/03/27 08:11:32;;;;;;;4.73;1.90;;;7.50;43.60;;;;;;20777;6826;116767;-74
2023/03/27 08:13:58;;;;;;;3.70;2.30;;;7.50;44.20;;;;;;20775;6826;116932;-74
2023/03/27 08:16:26;;;;;;;7.32;1.98;;;7.40;44.90;;;;;;20760;6826;121045;-74
2023/03/27 08:18:49;;;;;;;6.73;2.00;;;7.20;45.20;;;;;;20767;6826;117077;-74
2023/03/27 08:21:14;;;;;;;4.73;2.13;;;7.10;45.40;;;;;;20579;6826;278434;-74
2023/03/27 08:23:40;;;;;;;5.40;2.50;;;7.20;43.10;;;;;;20773;6826;121342;-74
2023/03/27 08:26:05;;;;;;;6.53;2.27;;;7.30;43.80;;;;;;20569;6826;307027;-74
2023/03/27 08:28:32;;;;;;;7.80;2.67;;;7.40;42.90;;;;;;20552;6826;311650;-76
2023/03/27 08:30:58;;;;;;;8.33;2.60;;;7.80;41.50;;;;;;20582;6826;277132;-76
2023/03/27 08:33:26;;;;;;;8.10;3.10;;;8.10;41.00;;;;;;20563;6826;307363;-75
2023/03/27 08:35:49;;;;;;;5.27;2.20;;;8.40;40.20;;;;;;20768;6826;116875;-78
2023/03/27 08:38:15;;;;;;;5.37;1.90;;;8.30;41.00;;;;;;20757;6826;121851;-77
2023/03/27 08:40:40;;;;;;;5.97;2.10;;;8.00;41.80;;;;;;20558;6826;337265;-74
2023/03/27 08:43:06;;;;;;;9.75;2.37;;;8.10;40.80;;;;;;20764;6826;117426;-74
2023/03/27 08:45:44;;;;;;;5.53;2.30;;;8.30;41.90;;;;;;20534;6826;336484;-74
2023/03/27 08:48:20;;;;;;;2.83;1.90;;;8.70;41.10;;;;;;20052;6826;118747;-74
2023/03/27 08:50:48;;;;;;;3.80;2.08;;;8.80;38.50;;;;;;20546;6826;336590;-75
2023/03/27 08:53:13;;;;;;;3.73;1.60;;;8.80;38.50;;;;;;20776;6826;117361;-74
2023/03/27 08:55:40;;;;;;;5.50;2.10;;;9.00;37.00;;;;;;20546;6826;277971;-75
2023/03/27 08:58:06;;;;;;;5.47;2.10;;;9.40;37.90;;;;;;20557;6826;312588;-74
2023/03/27 09:00:32;;;;;;;4.90;1.90;;;9.30;37.80;;;;;;20736;6826;117986;-77
2023/03/27 09:03:04;;;;;;;4.10;2.10;;;9.40;39.00;;;;;;20552;6826;310141;-77
2023/03/27 09:05:29;;;;;;;4.50;1.63;;;9.60;37.80;;;;;;20617;6826;117084;-74
2023/03/27 09:08:15;;;;;;;5.30;2.22;;;9.70;38.60;;;;;;20539;6826;277469;-74
2023/03/27 09:10:40;;;;;;;4.03;1.90;;;9.90;37.30;;;;;;20763;6824;119205;-73
2023/03/27 09:13:19;;;;;;;4.37;1.77;;;10.10;37.50;;;;;;20766;6825;116843;-72
2023/03/27 09:15:59;;;;;;;3.73;2.10;;;10.00;39.00;;;;;;20762;6826;117631;-74
2023/03/27 09:18:38;;;;;;;5.32;2.00;;;10.00;39.00;;;;;;20535;6826;341538;-74
2023/03/27 09:21:09;;;;;;;5.50;2.12;;;10.20;34.50;;;;;;20547;6826;277276;-74
2023/03/27 09:23:41;;;;;;;3.87;1.83;;;10.40;34.00;;;;;;20782;6826;122925;-74
2023/03/27 09:26:20;;;;;;;4.37;1.80;;;10.40;35.60;;;;;;20787;6826;120653;-74
2023/03/27 09:28:50;;;;;;;5.20;2.22;;;10.20;37.10;;;;;;20563;6826;290877;-74
2023/03/27 09:31:21;;;;;;;5.07;1.90;;;10.50;35.00;;;;;;20762;6826;117596;-74
2023/03/27 09:33:48;;;;;;;3.80;1.80;;;10.60;36.20;;;;;;20497;6826;118340;-74
2023/03/27 09:36:14;;;;;;;4.33;1.87;;;10.70;35.10;;;;;;20565;6826;326795;-74
2023/03/27 09:38:49;;;;;;;3.33;1.60;;;10.70;35.10;;;;;;20777;6826;117250;-74
2023/03/27 09:41:10;;;;;;;3.80;2.20;;;10.80;36.60;;;;;;20551;6826;279918;-74
2023/03/27 09:43:39;;;;;;;4.12;1.80;;;11.00;34.10;;;;;;20560;6826;281089;-74
2023/03/27 09:46:04;;;;;;;5.23;2.00;;;11.20;33.30;;;;;;20560;6826;278699;-74
2023/03/27 09:48:40;;;;;;;4.97;2.05;;;11.50;34.00;;;;;;20553;6826;307315;-74
2023/03/27 09:51:06;;;;;;;3.92;1.98;;;11.80;32.90;;;;;;20563;6826;280072;-74
2023/03/27 09:53:31;;;;;;;7.00;2.20;;;12.00;32.80;;;;;;20461;6826;278819;-74
2023/03/27 09:56:04;;;;;;;4.93;2.00;;;12.50;31.00;;;;;;20564;6826;306466;-74
2023/03/27 09:58:30;;;;;;;3.83;1.43;;;12.50;30.90;;;;;;20744;6826;120403;-73
2023/03/27 10:01:18;;;;;;;3.90;1.50;;;12.20;33.90;;;;;;20759;6826;117760;-73
2023/03/27 10:03:42;;;;;;;3.13;1.50;;;12.20;33.90;;;;;;20748;6826;117667;-74
2023/03/27 10:06:08;;;;;;;4.07;1.67;;;11.90;34.70;;;;;;20551;6826;277539;-75
2023/03/27 10:08:40;;;;;;;2.42;1.58;;;11.80;30.20;;;;;;20534;6826;337006;-75
2023/03/27 10:11:06;;;;;;;3.45;1.70;;;11.90;30.00;;;;;;20569;6826;278489;-73
2023/03/27 10:13:31;;;;;;;4.10;2.10;;;12.10;30.30;;;;;;20784;6826;120662;-74
2023/03/27 10:15:56;;;;;;;3.60;1.50;;;12.20;32.20;;;;;;20575;6826;281443;-73
2023/03/27 10:18:22;;;;;;;3.87;2.07;;;12.20;30.40;;;;;;20540;6826;320654;-77
2023/03/27 10:20:54;;;;;;;3.97;2.50;;;12.50;31.10;;;;;;20552;6824;306182;-73
2023/03/27 10:23:29;;;;;;;3.93;2.00;;;12.70;29.30;;;;;;20571;6825;282085;-74
2023/03/27 10:25:58;;;;;;;5.40;2.00;;;12.90;28.20;;;;;;20530;6826;307329;-75
2023/03/27 10:28:23;;;;;;;2.72;1.90;;;12.90;28.20;;;;;;20538;6826;311357;-74
2023/03/27 10:31:02;;;;;;;1.63;1.50;;;13.00;28.20;;;;;;20763;6826;120147;-74
2023/03/27 10:33:27;;;;;;;4.45;4.07;;;12.80;29.40;;;;;;20554;6826;341699;-72
2023/03/27 10:35:55;;;;;;;4.33;1.80;;;13.00;27.30;;;;;;20568;6826;282404;-76
2023/03/27 10:38:21;;;;;;;3.30;1.63;;;12.90;28.80;;;;;;20758;6826;120127;-81
2023/03/27 10:40:47;;;;;;;2.70;1.43;;;12.90;28.80;;;;;;20780;6826;117295;-74
2023/03/27 10:43:12;;;;;;;2.50;1.47;;;12.80;30.00;;;;;;20774;6826;118843;-74
2023/03/27 10:45:45;;;;;;;3.10;1.20;;;12.50;30.70;;;;;;20765;6826;117428;-75
2023/03/27 10:48:10;;;;;;;3.03;1.63;;;12.30;31.20;;;;;;20544;6826;292474;-75
2023/03/27 10:50:46;;;;;;;3.15;1.70;;;12.50;28.00;;;;;;20532;6826;306638;-76
2023/03/27 10:53:32;;;;;;;2.07;1.37;;;12.80;27.20;;;;;;20764;6826;123038;-73
2023/03/27 10:56:16;;;;;;;2.55;1.50;;;12.80;28.20;;;;;;20531;6826;308210;-74
2023/03/27 10:59:04;;;;;;;2.73;1.43;;;13.00;27.90;;;;;;20761;6826;117649;-73
2023/03/27 11:01:36;;;;;;;2.03;1.17;;;13.10;29.80;;;;;;20547;6826;117089;-74
2023/03/27 11:04:05;;;;;;;3.60;1.70;;;13.10;30.90;;;;;;20532;6826;306090;-74
2023/03/27 11:06:31;;;;;;;3.63;1.40;;;13.30;28.50;;;;;;20744;6826;119809;-74
2023/03/27 11:09:22;;;;;;;1.70;1.20;;;12.90;29.60;;;;;;20765;6826;117248;-74
2023/03/27 11:11:53;;;;;;;2.00;1.23;;;12.80;27.10;;;;;;20552;6826;305307;-80
2023/03/27 11:14:22;;;;;;;2.17;1.40;;;12.80;27.00;;;;;;20538;6826;310968;-73
2023/03/27 11:16:47;;;;;;;3.70;0.90;;;13.00;26.70;;;;;;20775;6826;117714;-72
2023/03/27 11:19:30;;;;;;;2.63;1.33;;;12.80;27.40;;;;;;20778;6826;117685;-73
2023/03/27 11:21:56;;;;;;;2.97;1.57;;;12.50;28.30;;;;;;20773;6826;118458;-74
2023/03/27 11:24:21;;;;;;;5.07;1.37;;;12.20;29.30;;;;;;20745;6826;119866;-76
2023/03/27 11:26:46;;;;;;;3.10;1.55;;;12.00;29.90;;;;;;20539;6826;277856;-77
2023/03/27 11:29:13;;;;;;;3.33;1.93;;;11.90;27.70;;;;;;20544;6826;311401;-77
2023/03/27 11:31:38;;;;;;;3.73;2.13;;;12.10;26.90;;;;;;20385;6826;335864;-76
2023/03/27 11:34:17;;;;;;;2.75;1.42;;;12.20;26.60;;;;;;20772;6824;117002;-76
2023/03/27 11:36:50;;;;;;;2.00;1.40;;;12.00;28.00;;;;;;20783;6825;123398;-77
2023/03/27 11:39:23;;;;;;;2.60;1.43;;;11.80;29.10;;;;;;20781;6826;117097;-78
2023/03/27 11:41:50;;;;;;;2.97;1.40;;;11.70;30.00;;;;;;20778;6826;123200;-77
2023/03/27 11:44:15;;;;;;;2.00;1.80;;;11.60;30.30;;;;;;20761;6826;117525;-78
2023/03/27 11:47:14;;;;;;;1.62;1.30;;;11.40;30.30;;;;;;20582;6826;121263;-75
2023/03/27 11:50:00;;;;;;;4.00;1.50;;;11.10;30.50;;;;;;20778;6826;117269;-75
2023/03/27 11:52:48;;;;;;;2.60;1.23;;;10.90;31.20;;;;;;20734;6826;119704;-75
2023/03/27 11:55:17;;;;;;;3.83;1.40;;;10.70;32.00;;;;;;19990;6826;281997;-74
2023/03/27 11:58:06;;;;;;;1.97;1.23;;;10.90;29.40;;;;;;20757;6826;117436;-77
2023/03/27 12:00:52;;;;;;;2.87;1.42;;;10.90;29.40;;;;;;20511;6826;307031;-76
2023/03/27 12:03:41;;;;;;;2.30;1.37;;;11.20;28.50;;;;;;20791;6826;117099;-75
2023/03/27 12:06:33;;;;;;;2.10;1.13;;;11.30;29.60;;;;;;20799;6826;121339;-75
2023/03/27 12:08:58;;;;;;;2.57;1.40;;;11.30;30.10;;;;;;20801;6826;117647;-75
2023/03/27 12:11:24;;;;;;;3.13;1.13;;;11.30;31.00;;;;;;20766;6826;119498;-77
2023/03/27 12:13:56;;;;;;;1.47;1.00;;;11.30;32.10;;;;;;20780;6826;117090;-74
2023/03/27 12:16:49;;;;;;;2.70;1.40;;;11.20;32.00;;;;;;20541;6826;340481;-75
2023/03/27 12:19:28;;;;;;;3.03;1.80;;;11.60;30.00;;;;;;18750;7460;299771;-77
2023/03/27 12:22:17;;;;;;;2.07;1.50;;;12.20;28.30;;;;;;20121;6838;307377;-76
2023/03/27 12:25:02;;;;;;;2.10;1.33;;;12.50;28.20;;;;;;20546;6826;315143;-78
2023/03/27 12:27:34;;;;;;;1.43;1.00;;;12.80;27.30;;;;;;20193;6826;118944;-76
2023/03/27 12:30:30;;;;;;;2.57;1.30;;;12.80;28.70;;;;;;20758;6826;117264;-78
2023/03/27 12:33:01;;;;;;;2.93;1.23;;;12.50;29.40;;;;;;20766;6826;119046;-77
2023/03/27 12:35:30;;;;;;;1.67;1.58;;;12.10;29.90;;;;;;20542;6826;306556;-76
2023/03/27 12:37:56;;;;;;;2.70;1.33;;;12.10;27.60;;;;;;20563;6826;310716;-76
2023/03/27 12:40:45;;;;;;;1.60;0.80;;;12.20;27.90;;;;;;20755;6826;119112;-74
2023/03/27 12:43:28;;;;;;;2.50;1.12;;;12.10;29.20;;;;;;20565;6826;308179;-78
2023/03/27 12:46:15;;;;;;;2.30;1.10;;;12.30;29.20;;;;;;20778;6824;119423;-77
2023/03/27 12:48:53;;;;;;;1.90;0.93;;;12.30;28.60;;;;;;20579;6815;306997;-73
2023/03/27 12:51:19;;;;;;;1.73;1.10;;;12.50;27.90;;;;;;20532;6830;324966;-73
2023/03/27 12:53:54;;;;;;;2.07;0.93;;;12.80;25.90;;;;;;20662;6842;117629;-73